sensor_id;sensor_type;location;lat;lon;timestamp;pressure;altitude;pressure_sealevel;temperature;humidity
76011;BME280;64701;43.536;1.478;2023-04-06T00:00:58;99815.69;;;10.22;44.38
76011;BME280;64701;43.536;1.478;2023-04-06T00:03:23;99818.91;;;10.18;44.61
76011;BME280;64701;43.536;1.478;2023-04-06T00:05:48;99819.06;;;10.16;44.64
76011;BME280;64701;43.536;1.478;2023-04-06T00:08:13;99809.47;;;10.15;44.88
76011;BME280;64701;43.536;1.478;2023-04-06T00:10:39;99809.47;;;10.15;44.52
76011;BME280;64701;43.536;1.478;2023-04-06T00:13:05;99813.47;;;10.11;45.23
76011;BME280;64701;43.536;1.478;2023-04-06T00:15:30;99806.53;;;10.10;45.02
76011;BME280;64701;43.536;1.478;2023-04-06T00:17:55;99810.19;;;10.09;44.97
76011;BME280;64701;43.536;1.478;2023-04-06T00:20:21;99809.19;;;10.10;44.94
76011;BME280;64701;43.536;1.478;2023-04-06T00:22:46;99803.25;;;10.08;45.31
76011;BME280;64701;43.536;1.478;2023-04-06T00:25:11;99804.97;;;10.01;46.05
76011;BME280;64701;43.536;1.478;2023-04-06T00:27:37;99797.41;;;9.98;46.69
76011;BME280;64701;43.536;1.478;2023-04-06T00:30:03;99805.22;;;9.92;46.54
76011;BME280;64701;43.536;1.478;2023-04-06T00:32:29;99803.75;;;9.89;46.17
76011;BME280;64701;43.536;1.478;2023-04-06T00:34:55;99802.66;;;9.83;47.57
76011;BME280;64701;43.536;1.478;2023-04-06T00:37:20;99795.72;;;9.68;47.19
76011;BME280;64701;43.536;1.478;2023-04-06T00:39:45;99794.72;;;9.69;46.75
76011;BME280;64701;43.536;1.478;2023-04-06T00:42:11;99789.66;;;9.59;48.88
76011;BME280;64701;43.536;1.478;2023-04-06T00:44:40;99782.09;;;9.56;47.39
76011;BME280;64701;43.536;1.478;2023-04-06T00:47:05;99786.94;;;9.53;48.60
76011;BME280;64701;43.536;1.478;2023-04-06T00:49:31;99779.81;;;9.53;47.05
76011;BME280;64701;43.536;1.478;2023-04-06T00:51:57;99791.03;;;9.55;47.29
76011;BME280;64701;43.536;1.478;2023-04-06T00:54:22;99781.28;;;9.56;47.35
76011;BME280;64701;43.536;1.478;2023-04-06T00:56:47;99790.03;;;9.56;46.97
76011;BME280;64701;43.536;1.478;2023-04-06T00:59:13;99781.81;;;9.51;48.28
76011;BME280;64701;43.536;1.478;2023-04-06T01:01:38;99780.16;;;9.50;47.04
76011;BME280;64701;43.536;1.478;2023-04-06T01:04:03;99776.69;;;9.50;47.54
76011;BME280;64701;43.536;1.478;2023-04-06T01:06:28;99787.28;;;9.50;47.07
76011;BME280;64701;43.536;1.478;2023-04-06T01:08:54;99785.34;;;9.43;47.65
76011;BME280;64701;43.536;1.478;2023-04-06T01:11:19;99790.78;;;9.42;47.57
76011;BME280;64701;43.536;1.478;2023-04-06T01:13:45;99790.78;;;9.42;47.41
76011;BME280;64701;43.536;1.478;2023-04-06T01:16:10;99789.97;;;9.41;47.28
76011;BME280;64701;43.536;1.478;2023-04-06T01:18:35;99790.34;;;9.38;47.71
76011;BME280;64701;43.536;1.478;2023-04-06T01:21:02;99789.69;;;9.36;47.54
76011;BME280;64701;43.536;1.478;2023-04-06T01:23:27;99790.69;;;9.35;47.98
76011;BME280;64701;43.536;1.478;2023-04-06T01:25:52;99784.78;;;9.33;47.44
76011;BME280;64701;43.536;1.478;2023-04-06T01:28:18;99783.78;;;9.34;47.49
76011;BME280;64701;43.536;1.478;2023-04-06T01:30:43;99780.47;;;9.32;48.06
76011;BME280;64701;43.536;1.478;2023-04-06T01:33:08;99785.94;;;9.31;49.12
76011;BME280;64701;43.536;1.478;2023-04-06T01:35:33;99782.47;;;9.30;47.72
76011;BME280;64701;43.536;1.478;2023-04-06T01:37:59;99785.19;;;9.22;49.22
76011;BME280;64701;43.536;1.478;2023-04-06T01:40:24;99781.44;;;9.17;48.46
76011;BME280;64701;43.536;1.478;2023-04-06T01:42:50;99776.03;;;9.10;49.97
76011;BME280;64701;43.536;1.478;2023-04-06T01:45:15;99781.19;;;9.04;50.60
76011;BME280;64701;43.536;1.478;2023-04-06T01:47:40;99784.34;;;8.99;51.00
76011;BME280;64701;43.536;1.478;2023-04-06T01:50:06;99779.78;;;8.93;50.77
76011;BME280;64701;43.536;1.478;2023-04-06T01:52:35;99775.53;;;8.84;51.35
76011;BME280;64701;43.536;1.478;2023-04-06T01:55:00;99769.28;;;8.77;52.33
76011;BME280;64701;43.536;1.478;2023-04-06T01:57:25;99769.97;;;8.71;51.33
76011;BME280;64701;43.536;1.478;2023-04-06T01:59:51;99767.72;;;8.68;50.44
76011;BME280;64701;43.536;1.478;2023-04-06T02:02:16;99760.94;;;8.65;50.41
76011;BME280;64701;43.536;1.478;2023-04-06T02:04:41;99763.78;;;8.64;50.75
76011;BME280;64701;43.536;1.478;2023-04-06T02:07:07;99765.75;;;8.62;50.82
76011;BME280;64701;43.536;1.478;2023-04-06T02:09:32;99759.66;;;8.61;50.59
76011;BME280;64701;43.536;1.478;2023-04-06T02:11:57;99758.00;;;8.60;50.51
76011;BME280;64701;43.536;1.478;2023-04-06T02:14:24;99755.53;;;8.58;50.03
76011;BME280;64701;43.536;1.478;2023-04-06T02:16:50;99755.53;;;8.58;50.45
76011;BME280;64701;43.536;1.478;2023-04-06T02:19:15;99751.06;;;8.59;50.34
76011;BME280;64701;43.536;1.478;2023-04-06T02:21:40;99749.25;;;8.59;50.01
76011;BME280;64701;43.536;1.478;2023-04-06T02:24:06;99751.91;;;8.59;50.40
76011;BME280;64701;43.536;1.478;2023-04-06T02:26:31;99750.44;;;8.57;51.07
76011;BME280;64701;43.536;1.478;2023-04-06T02:28:56;99756.72;;;8.56;51.44
76011;BME280;64701;43.536;1.478;2023-04-06T02:31:22;99751.28;;;8.57;50.86
76011;BME280;64701;43.536;1.478;2023-04-06T02:33:47;99755.53;;;8.58;50.59
76011;BME280;64701;43.536;1.478;2023-04-06T02:36:12;99753.56;;;8.60;50.64
76011;BME280;64701;43.536;1.478;2023-04-06T02:38:37;99745.63;;;8.60;50.56
76011;BME280;64701;43.536;1.478;2023-04-06T02:41:03;99744.28;;;8.65;49.60
76011;BME280;64701;43.536;1.478;2023-04-06T02:43:28;99743.94;;;8.68;49.94
76011;BME280;64701;43.536;1.478;2023-04-06T02:45:53;99742.66;;;8.64;50.87
76011;BME280;64701;43.536;1.478;2023-04-06T02:48:19;99744.63;;;8.62;51.40
76011;BME280;64701;43.536;1.478;2023-04-06T02:50:44;99751.28;;;8.57;52.11
76011;BME280;64701;43.536;1.478;2023-04-06T02:53:10;99749.31;;;8.51;52.98
76011;BME280;64701;43.536;1.478;2023-04-06T02:55:35;99753.97;;;8.41;55.55
76011;BME280;64701;43.536;1.478;2023-04-06T02:58:00;99765.22;;;8.35;53.61
76011;BME280;64701;43.536;1.478;2023-04-06T03:00:25;99760.28;;;8.32;53.51
76011;BME280;64701;43.536;1.478;2023-04-06T03:02:51;99763.75;;;8.25;55.40
76011;BME280;64701;43.536;1.478;2023-04-06T03:05:16;99760.78;;;8.19;53.73
76011;BME280;64701;43.536;1.478;2023-04-06T03:07:41;99758.84;;;8.13;55.36
76011;BME280;64701;43.536;1.478;2023-04-06T03:10:07;99748.81;;;8.09;54.24
76011;BME280;64701;43.536;1.478;2023-04-06T03:12:32;99756.88;;;8.07;54.25
76011;BME280;64701;43.536;1.478;2023-04-06T03:14:58;99758.03;;;8.05;54.79
76011;BME280;64701;43.536;1.478;2023-04-06T03:17:23;99755.06;;;8.00;54.97
76011;BME280;64701;43.536;1.478;2023-04-06T03:19:48;99751.16;;;7.96;55.00
76011;BME280;64701;43.536;1.478;2023-04-06T03:22:14;99749.66;;;7.93;54.68
76011;BME280;64701;43.536;1.478;2023-04-06T03:24:39;99754.28;;;7.91;55.08
76011;BME280;64701;43.536;1.478;2023-04-06T03:27:04;99753.78;;;7.88;56.27
76011;BME280;64701;43.536;1.478;2023-04-06T03:29:31;99748.34;;;7.89;54.76
76011;BME280;64701;43.536;1.478;2023-04-06T03:31:56;99750.84;;;7.91;54.15
76011;BME280;64701;43.536;1.478;2023-04-06T03:34:22;99754.47;;;7.90;55.07
76011;BME280;64701;43.536;1.478;2023-04-06T03:36:47;99747.53;;;7.89;54.73
76011;BME280;64701;43.536;1.478;2023-04-06T03:39:12;99748.19;;;7.91;55.53
76011;BME280;64701;43.536;1.478;2023-04-06T03:41:38;99746.38;;;7.91;55.62
76011;BME280;64701;43.536;1.478;2023-04-06T03:44:03;99744.75;;;7.90;55.55
76011;BME280;64701;43.536;1.478;2023-04-06T03:46:28;99743.56;;;7.93;55.25
76011;BME280;64701;43.536;1.478;2023-04-06T03:48:54;99743.25;;;7.88;56.10
76011;BME280;64701;43.536;1.478;2023-04-06T03:51:19;99741.28;;;7.90;54.75
76011;BME280;64701;43.536;1.478;2023-04-06T03:53:44;99738.63;;;7.90;55.62
76011;BME280;64701;43.536;1.478;2023-04-06T03:56:10;99742.94;;;7.91;55.44
76011;BME280;64701;43.536;1.478;2023-04-06T03:58:35;99739.31;;;7.92;55.68
76011;BME280;64701;43.536;1.478;2023-04-06T04:01:00;99743.56;;;7.93;55.62
76011;BME280;64701;43.536;1.478;2023-04-06T04:03:26;99743.91;;;7.90;56.91
76011;BME280;64701;43.536;1.478;2023-04-06T04:05:52;99745.88;;;7.88;58.13
76011;BME280;64701;43.536;1.478;2023-04-06T04:08:18;99748.88;;;7.85;58.53
76011;BME280;64701;43.536;1.478;2023-04-06T04:10:43;99741.94;;;7.84;59.77
76011;BME280;64701;43.536;1.478;2023-04-06T04:13:08;99745.41;;;7.84;58.06
76011;BME280;64701;43.536;1.478;2023-04-06T04:15:33;99746.22;;;7.85;58.11
76011;BME280;64701;43.536;1.478;2023-04-06T04:17:59;99747.88;;;7.86;57.80
76011;BME280;64701;43.536;1.478;2023-04-06T04:20:24;99749.50;;;7.87;57.62
76011;BME280;64701;43.536;1.478;2023-04-06T04:22:49;99754.47;;;7.90;58.01
76011;BME280;64701;43.536;1.478;2023-04-06T04:25:15;99752.81;;;7.89;58.30
76011;BME280;64701;43.536;1.478;2023-04-06T04:27:40;99750.84;;;7.91;57.65
76011;BME280;64701;43.536;1.478;2023-04-06T04:30:05;99756.28;;;7.89;59.10
76011;BME280;64701;43.536;1.478;2023-04-06T04:32:31;99754.63;;;7.88;58.41
76011;BME280;64701;43.536;1.478;2023-04-06T04:34:56;99752.97;;;7.87;59.83
76011;BME280;64701;43.536;1.478;2023-04-06T04:37:21;99757.75;;;7.84;58.74
76011;BME280;64701;43.536;1.478;2023-04-06T04:39:47;99751.00;;;7.81;60.54
76011;BME280;64701;43.536;1.478;2023-04-06T04:42:13;99759.94;;;7.80;59.38
76011;BME280;64701;43.536;1.478;2023-04-06T04:44:38;99750.84;;;7.83;59.50
76011;BME280;64701;43.536;1.478;2023-04-06T04:47:04;99753.16;;;7.86;58.35
76011;BME280;64701;43.536;1.478;2023-04-06T04:49:30;99754.78;;;7.87;59.29
76011;BME280;64701;43.536;1.478;2023-04-06T04:51:55;99757.41;;;7.87;59.64
76011;BME280;64701;43.536;1.478;2023-04-06T04:54:20;99762.88;;;7.85;58.44
76011;BME280;64701;43.536;1.478;2023-04-06T04:56:46;99757.59;;;7.85;58.94
76011;BME280;64701;43.536;1.478;2023-04-06T04:59:11;99758.25;;;7.87;58.42
76011;BME280;64701;43.536;1.478;2023-04-06T05:01:36;99755.13;;;7.84;58.68
76011;BME280;64701;43.536;1.478;2023-04-06T05:04:02;99756.28;;;7.81;60.07
76011;BME280;64701;43.536;1.478;2023-04-06T05:06:27;99760.72;;;7.80;59.31
76011;BME280;64701;43.536;1.478;2023-04-06T05:08:52;99758.13;;;7.72;60.84
76011;BME280;64701;43.536;1.478;2023-04-06T05:11:17;99756.47;;;7.71;60.31
76011;BME280;64701;43.536;1.478;2023-04-06T05:13:43;99759.63;;;7.67;62.04
76011;BME280;64701;43.536;1.478;2023-04-06T05:16:08;99754.34;;;7.67;61.07
76011;BME280;64701;43.536;1.478;2023-04-06T05:18:33;99764.22;;;7.65;60.34
76011;BME280;64701;43.536;1.478;2023-04-06T05:20:59;99758.78;;;7.66;59.52
76011;BME280;64701;43.536;1.478;2023-04-06T05:23:24;99767.00;;;7.63;59.80
76011;BME280;64701;43.536;1.478;2023-04-06T05:25:49;99770.31;;;7.57;62.46
76011;BME280;64701;43.536;1.478;2023-04-06T05:28:15;99772.13;;;7.57;62.10
76011;BME280;64701;43.536;1.478;2023-04-06T05:30:41;99772.31;;;7.55;60.50
76011;BME280;64701;43.536;1.478;2023-04-06T05:33:07;99781.19;;;7.54;61.94
76011;BME280;64701;43.536;1.478;2023-04-06T05:35:32;99773.13;;;7.56;60.05
76011;BME280;64701;43.536;1.478;2023-04-06T05:37:57;99776.75;;;7.55;60.47
76011;BME280;64701;43.536;1.478;2023-04-06T05:40:22;99788.13;;;7.55;59.95
76011;BME280;64701;43.536;1.478;2023-04-06T05:42:48;99781.19;;;7.54;60.08
76011;BME280;64701;43.536;1.478;2023-04-06T05:45:14;99784.97;;;7.52;60.16
76011;BME280;64701;43.536;1.478;2023-04-06T05:47:42;99791.06;;;7.52;60.55
76011;BME280;64701;43.536;1.478;2023-04-06T05:50:07;99797.66;;;7.48;59.77
76011;BME280;64701;43.536;1.478;2023-04-06T05:52:33;99803.09;;;7.47;60.11
76011;BME280;64701;43.536;1.478;2023-04-06T05:54:58;99810.16;;;7.46;59.80
76011;BME280;64701;43.536;1.478;2023-04-06T05:57:23;99805.25;;;7.43;60.25
76011;BME280;64701;43.536;1.478;2023-04-06T05:59:48;99816.59;;;7.44;59.81
76011;BME280;64701;43.536;1.478;2023-04-06T06:02:14;99814.97;;;7.43;60.04
76011;BME280;64701;43.536;1.478;2023-04-06T06:04:39;99814.13;;;7.42;61.25
76011;BME280;64701;43.536;1.478;2023-04-06T06:07:05;99820.72;;;7.38;60.42
76011;BME280;64701;43.536;1.478;2023-04-06T06:09:30;99827.81;;;7.37;60.89
76011;BME280;64701;43.536;1.478;2023-04-06T06:11:55;99826.47;;;7.42;59.70
76011;BME280;64701;43.536;1.478;2023-04-06T06:14:21;99832.41;;;7.44;60.23
76011;BME280;64701;43.536;1.478;2023-04-06T06:16:47;99839.47;;;7.51;59.71
76011;BME280;64701;43.536;1.478;2023-04-06T06:19:12;99842.47;;;7.56;60.42
76011;BME280;64701;43.536;1.478;2023-04-06T06:21:37;99841.66;;;7.56;60.12
76011;BME280;64701;43.536;1.478;2023-04-06T06:24:03;99841.97;;;7.61;59.88
76011;BME280;64701;43.536;1.478;2023-04-06T06:26:28;99850.34;;;7.64;60.45
76011;BME280;64701;43.536;1.478;2023-04-06T06:28:53;99849.69;;;7.70;59.53
76011;BME280;64701;43.536;1.478;2023-04-06T06:31:19;99854.13;;;7.70;62.37
76011;BME280;64701;43.536;1.478;2023-04-06T06:33:47;99852.19;;;7.72;61.81
76011;BME280;64701;43.536;1.478;2023-04-06T06:36:15;99854.31;;;7.76;60.62
76011;BME280;64701;43.536;1.478;2023-04-06T06:38:40;99868.47;;;7.84;61.06
76011;BME280;64701;43.536;1.478;2023-04-06T06:41:06;99862.53;;;7.90;60.46
76011;BME280;64701;43.536;1.478;2023-04-06T06:43:31;99873.41;;;7.95;61.90
76011;BME280;64701;43.536;1.478;2023-04-06T06:45:56;99869.94;;;8.02;60.89
76011;BME280;64701;43.536;1.478;2023-04-06T06:48:22;99871.94;;;8.08;60.53
76011;BME280;64701;43.536;1.478;2023-04-06T06:50:47;99868.28;;;8.17;60.94
76011;BME280;64701;43.536;1.478;2023-04-06T06:53:13;99871.72;;;8.26;62.63
76011;BME280;64701;43.536;1.478;2023-04-06T06:55:38;99869.91;;;8.35;61.49
76011;BME280;64701;43.536;1.478;2023-04-06T06:58:04;99871.41;;;8.45;60.64
76011;BME280;64701;43.536;1.478;2023-04-06T07:00:29;99870.34;;;8.54;62.31
76011;BME280;64701;43.536;1.478;2023-04-06T07:02:55;99866.88;;;8.62;61.03
76011;BME280;64701;43.536;1.478;2023-04-06T07:05:20;99870.28;;;8.71;61.01
76011;BME280;64701;43.536;1.478;2023-04-06T07:07:45;99873.28;;;8.76;62.67
76011;BME280;64701;43.536;1.478;2023-04-06T07:10:11;99872.22;;;8.85;61.31
76011;BME280;64701;43.536;1.478;2023-04-06T07:12:36;99876.66;;;8.92;60.42
76011;BME280;64701;43.536;1.478;2023-04-06T07:15:01;99874.31;;;8.97;61.21
76011;BME280;64701;43.536;1.478;2023-04-06T07:17:26;99870.97;;;9.04;60.86
76011;BME280;64701;43.536;1.478;2023-04-06T07:19:52;99879.03;;;9.10;60.34
76011;BME280;64701;43.536;1.478;2023-04-06T07:22:17;99872.06;;;9.17;61.10
76011;BME280;64701;43.536;1.478;2023-04-06T07:24:42;99883.25;;;9.27;60.57
76011;BME280;64701;43.536;1.478;2023-04-06T07:27:08;99892.75;;;9.36;61.16
76011;BME280;64701;43.536;1.478;2023-04-06T07:29:33;99893.41;;;9.38;61.75
76011;BME280;64701;43.536;1.478;2023-04-06T07:31:58;99885.44;;;9.47;59.83
76011;BME280;64701;43.536;1.478;2023-04-06T07:34:24;99891.47;;;9.55;59.25
76011;BME280;64701;43.536;1.478;2023-04-06T07:36:49;99905.97;;;9.59;59.94
76011;BME280;64701;43.536;1.478;2023-04-06T07:39:15;99911.22;;;9.67;59.88
76011;BME280;64701;43.536;1.478;2023-04-06T07:41:40;99906.59;;;9.69;60.12
76011;BME280;64701;43.536;1.478;2023-04-06T07:44:05;99915.47;;;9.76;59.29
76011;BME280;64701;43.536;1.478;2023-04-06T07:46:31;99914.28;;;9.79;58.95
76011;BME280;64701;43.536;1.478;2023-04-06T07:48:57;99929.09;;;9.88;59.17
76011;BME280;64701;43.536;1.478;2023-04-06T07:51:22;99935.28;;;9.95;59.16
76011;BME280;64701;43.536;1.478;2023-04-06T07:53:47;99928.28;;;10.02;59.01
76011;BME280;64701;43.536;1.478;2023-04-06T07:56:13;99935.19;;;10.11;58.96
76011;BME280;64701;43.536;1.478;2023-04-06T07:58:40;99936.47;;;10.15;58.98
76011;BME280;64701;43.536;1.478;2023-04-06T08:01:05;99923.53;;;10.20;58.74
76011;BME280;64701;43.536;1.478;2023-04-06T08:03:32;99919.19;;;10.28;59.34
76011;BME280;64701;43.536;1.478;2023-04-06T08:05:58;99918.13;;;10.37;58.99
76011;BME280;64701;43.536;1.478;2023-04-06T08:08:23;99918.13;;;10.51;58.32
76011;BME280;64701;43.536;1.478;2023-04-06T08:10:48;99923.88;;;10.55;59.45
76011;BME280;64701;43.536;1.478;2023-04-06T08:13:14;99912.38;;;10.62;58.48
76011;BME280;64701;43.536;1.478;2023-04-06T08:15:39;99920.06;;;10.72;58.64
76011;BME280;64701;43.536;1.478;2023-04-06T08:18:05;99924.97;;;10.75;58.79
76011;BME280;64701;43.536;1.478;2023-04-06T08:20:30;99919.94;;;10.80;58.13
76011;BME280;64701;43.536;1.478;2023-04-06T08:22:56;99919.94;;;10.80;58.11
76011;BME280;64701;43.536;1.478;2023-04-06T08:25:21;99931.63;;;10.86;58.40
76011;BME280;64701;43.536;1.478;2023-04-06T08:27:46;99934.13;;;10.87;58.15
76011;BME280;64701;43.536;1.478;2023-04-06T08:30:11;99932.72;;;10.91;58.04
76011;BME280;64701;43.536;1.478;2023-04-06T08:32:37;99943.59;;;10.96;57.77
76011;BME280;64701;43.536;1.478;2023-04-06T08:35:02;99939.69;;;11.07;57.25
76011;BME280;64701;43.536;1.478;2023-04-06T08:37:27;99948.06;;;11.11;57.38
76011;BME280;64701;43.536;1.478;2023-04-06T08:39:53;99945.34;;;11.19;57.15
76011;BME280;64701;43.536;1.478;2023-04-06T08:42:22;99936.25;;;11.28;56.93
76011;BME280;64701;43.536;1.478;2023-04-06T08:44:50;99940.81;;;11.34;56.87
76011;BME280;64701;43.536;1.478;2023-04-06T08:47:17;99946.38;;;11.39;57.01
76011;BME280;64701;43.536;1.478;2023-04-06T08:49:42;99953.78;;;11.43;56.14
76011;BME280;64701;43.536;1.478;2023-04-06T08:52:09;99950.19;;;11.51;56.04
76011;BME280;64701;43.536;1.478;2023-04-06T08:54:35;99952.75;;;11.59;55.66
76011;BME280;64701;43.536;1.478;2023-04-06T08:57:01;99955.47;;;11.66;55.99
76011;BME280;64701;43.536;1.478;2023-04-06T08:59:27;99961.19;;;11.69;56.14
76011;BME280;64701;43.536;1.478;2023-04-06T09:01:52;99960.47;;;11.75;56.44
76011;BME280;64701;43.536;1.478;2023-04-06T09:04:19;99955.44;;;11.80;56.20
76011;BME280;64701;43.536;1.478;2023-04-06T09:06:45;99959.97;;;11.86;56.52
76011;BME280;64701;43.536;1.478;2023-04-06T09:09:10;99967.41;;;11.91;56.35
76011;BME280;64701;43.536;1.478;2023-04-06T09:14:08;99961.25;;;12.12;55.98
76011;BME280;64701;43.536;1.478;2023-04-06T09:16:38;99959.06;;;12.22;56.02
76011;BME280;64701;43.536;1.478;2023-04-06T09:19:04;99956.31;;;12.30;55.80
76011;BME280;64701;43.536;1.478;2023-04-06T09:21:29;99951.63;;;12.32;56.63
76011;BME280;64701;43.536;1.478;2023-04-06T09:23:59;99955.41;;;12.44;56.25
76011;BME280;64701;43.536;1.478;2023-04-06T09:26:25;99957.34;;;12.57;56.16
76011;BME280;64701;43.536;1.478;2023-04-06T09:28:55;99966.97;;;12.64;55.92
76011;BME280;64701;43.536;1.478;2023-04-06T09:31:25;99966.84;;;12.73;55.61
76011;BME280;64701;43.536;1.478;2023-04-06T09:33:51;99972.63;;;12.83;56.29
76011;BME280;64701;43.536;1.478;2023-04-06T09:36:17;99975.50;;;12.88;55.06
76011;BME280;64701;43.536;1.478;2023-04-06T09:38:59;99967.81;;;12.99;55.57
76011;BME280;64701;43.536;1.478;2023-04-06T09:41:25;99979.94;;;13.08;55.68
76011;BME280;64701;43.536;1.478;2023-04-06T09:43:51;99966.72;;;13.15;54.96
76011;BME280;64701;43.536;1.478;2023-04-06T09:46:17;99972.47;;;13.25;54.39
76011;BME280;64701;43.536;1.478;2023-04-06T09:48:43;99972.72;;;13.37;55.12
76011;BME280;64701;43.536;1.478;2023-04-06T09:51:08;99959.88;;;13.47;54.72
76011;BME280;64701;43.536;1.478;2023-04-06T09:53:35;99960.69;;;13.47;54.23
76011;BME280;64701;43.536;1.478;2023-04-06T09:56:03;99972.63;;;13.58;54.58
76011;BME280;64701;43.536;1.478;2023-04-06T09:58:32;99971.00;;;13.70;54.68
76011;BME280;64701;43.536;1.478;2023-04-06T10:01:01;99970.03;;;13.91;54.02
76011;BME280;64701;43.536;1.478;2023-04-06T10:06:04;99972.31;;;14.27;51.43
76011;BME280;64701;43.536;1.478;2023-04-06T10:08:31;99965.19;;;14.47;52.61
76011;BME280;64701;43.536;1.478;2023-04-06T10:10:58;99961.66;;;14.60;50.47
76011;BME280;64701;43.536;1.478;2023-04-06T10:13:24;99961.03;;;14.78;51.40
76011;BME280;64701;43.536;1.478;2023-04-06T10:15:49;99957.91;;;15.00;51.33
76011;BME280;64701;43.536;1.478;2023-04-06T10:18:16;99963.44;;;15.05;48.82
76011;BME280;64701;43.536;1.478;2023-04-06T10:20:51;99961.13;;;15.22;48.83
76011;BME280;64701;43.536;1.478;2023-04-06T10:26:03;99965.41;;;15.36;48.63
76011;BME280;64701;43.536;1.478;2023-04-06T10:28:34;99969.84;;;15.49;49.32
76011;BME280;64701;43.536;1.478;2023-04-06T10:31:01;99976.22;;;15.55;49.26
76011;BME280;64701;43.536;1.478;2023-04-06T10:33:27;99972.84;;;15.72;49.97
76011;BME280;64701;43.536;1.478;2023-04-06T10:35:52;99975.69;;;15.77;49.65
76011;BME280;64701;43.536;1.478;2023-04-06T10:38:19;99970.69;;;15.87;49.34
76011;BME280;64701;43.536;1.478;2023-04-06T10:40:47;99970.03;;;15.92;48.13
76011;BME280;64701;43.536;1.478;2023-04-06T10:45:38;99958.19;;;16.13;49.27
76011;BME280;64701;43.536;1.478;2023-04-06T10:48:13;99962.84;;;16.24;47.78
76011;BME280;64701;43.536;1.478;2023-04-06T10:50:39;99950.31;;;16.24;45.47
76011;BME280;64701;43.536;1.478;2023-04-06T10:53:05;99946.88;;;16.42;46.45
76011;BME280;64701;43.536;1.478;2023-04-06T10:55:31;99943.63;;;16.33;42.96
76011;BME280;64701;43.536;1.478;2023-04-06T10:57:56;99945.31;;;16.53;44.68
76011;BME280;64701;43.536;1.478;2023-04-06T11:00:22;99946.94;;;16.60;41.16
76011;BME280;64701;43.536;1.478;2023-04-06T11:02:47;99943.81;;;16.82;42.67
76011;BME280;64701;43.536;1.478;2023-04-06T11:05:14;99941.03;;;16.95;43.25
76011;BME280;64701;43.536;1.478;2023-04-06T11:07:39;99945.63;;;17.06;42.95
76011;BME280;64701;43.536;1.478;2023-04-06T11:10:05;99933.66;;;17.27;41.04
76011;BME280;64701;43.536;1.478;2023-04-06T11:12:30;99934.00;;;17.48;42.06
76011;BME280;64701;43.536;1.478;2023-04-06T11:14:59;99932.03;;;17.74;40.64
76011;BME280;64701;43.536;1.478;2023-04-06T11:17:35;99931.69;;;17.82;38.30
76011;BME280;64701;43.536;1.478;2023-04-06T11:20:03;99930.44;;;17.96;37.14
76011;BME280;64701;43.536;1.478;2023-04-06T11:22:30;99930.84;;;18.11;38.86
76011;BME280;64701;43.536;1.478;2023-04-06T11:25:05;99927.19;;;18.59;41.08
76011;BME280;64701;43.536;1.478;2023-04-06T11:27:31;99923.28;;;18.90;38.65
76011;BME280;64701;43.536;1.478;2023-04-06T11:29:58;99923.81;;;19.15;33.99
76011;BME280;64701;43.536;1.478;2023-04-06T11:32:23;99921.41;;;19.42;33.71
76011;BME280;64701;43.536;1.478;2023-04-06T11:34:49;99907.50;;;19.73;36.23
76011;BME280;64701;43.536;1.478;2023-04-06T11:37:14;99903.91;;;20.13;36.17
76011;BME280;64701;43.536;1.478;2023-04-06T11:39:42;99912.91;;;20.73;34.74
76011;BME280;64701;43.536;1.478;2023-04-06T11:42:08;99902.84;;;21.07;30.10
76011;BME280;64701;43.536;1.478;2023-04-06T11:47:03;99886.94;;;22.45;31.65
76011;BME280;64701;43.536;1.478;2023-04-06T11:49:29;99892.47;;;23.23;32.34
76011;BME280;64701;43.536;1.478;2023-04-06T11:51:54;99895.88;;;23.75;28.70
76011;BME280;64701;43.536;1.478;2023-04-06T11:54:32;99889.06;;;24.64;30.61
76011;BME280;64701;43.536;1.478;2023-04-06T11:56:57;99882.41;;;25.10;27.48
76011;BME280;64701;43.536;1.478;2023-04-06T11:59:22;99886.97;;;25.25;25.27
76011;BME280;64701;43.536;1.478;2023-04-06T12:01:48;99885.03;;;26.14;24.65
76011;BME280;64701;43.536;1.478;2023-04-06T12:04:13;99884.94;;;26.53;24.02
76011;BME280;64701;43.536;1.478;2023-04-06T12:06:38;99887.44;;;26.73;25.33
76011;BME280;64701;43.536;1.478;2023-04-06T12:09:04;99886.53;;;27.25;23.62
76011;BME280;64701;43.536;1.478;2023-04-06T12:11:29;99880.69;;;28.07;25.66
76011;BME280;64701;43.536;1.478;2023-04-06T12:13:55;99875.03;;;28.81;24.14
76011;BME280;64701;43.536;1.478;2023-04-06T12:16:20;99868.13;;;29.25;21.17
76011;BME280;64701;43.536;1.478;2023-04-06T12:18:45;99868.31;;;29.15;23.50
76011;BME280;64701;43.536;1.478;2023-04-06T12:21:11;99868.00;;;30.02;21.76
76011;BME280;64701;43.536;1.478;2023-04-06T12:23:36;99867.72;;;29.90;18.94
76011;BME280;64701;43.536;1.478;2023-04-06T12:26:02;99865.16;;;30.47;20.49
76011;BME280;64701;43.536;1.478;2023-04-06T12:28:27;99864.88;;;29.95;19.52
76011;BME280;64701;43.536;1.478;2023-04-06T12:30:53;99858.06;;;30.46;18.72
76011;BME280;64701;43.536;1.478;2023-04-06T12:33:19;99865.19;;;30.95;21.35
76011;BME280;64701;43.536;1.478;2023-04-06T12:35:44;99860.00;;;31.33;19.40
76011;BME280;64701;43.536;1.478;2023-04-06T12:38:10;99865.19;;;30.95;16.82
76011;BME280;64701;43.536;1.478;2023-04-06T12:40:38;99864.19;;;30.73;15.16
76011;BME280;64701;43.536;1.478;2023-04-06T12:43:04;99867.03;;;31.16;15.64
76011;BME280;64701;43.536;1.478;2023-04-06T12:45:32;99861.75;;;31.89;18.41
76011;BME280;64701;43.536;1.478;2023-04-06T12:47:57;99860.13;;;31.96;16.36
76011;BME280;64701;43.536;1.478;2023-04-06T12:50:23;99846.38;;;32.31;16.32
76011;BME280;64701;43.536;1.478;2023-04-06T12:52:48;99855.13;;;32.16;17.42
76011;BME280;64701;43.536;1.478;2023-04-06T12:55:13;99847.88;;;32.66;16.71
76011;BME280;64701;43.536;1.478;2023-04-06T12:57:39;99841.41;;;33.00;17.18
76011;BME280;64701;43.536;1.478;2023-04-06T13:00:05;99846.34;;;32.77;19.10
76011;BME280;64701;43.536;1.478;2023-04-06T13:02:31;99848.34;;;32.98;17.67
76011;BME280;64701;43.536;1.478;2023-04-06T13:04:56;99841.28;;;33.59;18.30
76011;BME280;64701;43.536;1.478;2023-04-06T13:07:22;99843.31;;;33.71;17.73
76011;BME280;64701;43.536;1.478;2023-04-06T13:09:47;99842.59;;;33.11;17.59
76011;BME280;64701;43.536;1.478;2023-04-06T13:12:14;99850.28;;;33.47;18.16